sensor_id;sensor_type;location;lat;lon;timestamp;P1;durP1;ratioP1;P2;durP2;ratioP2
2548;SDS011;1284;53.520;10.248;2022-11-21T00:03:50;8.85;;;4.22;;
2548;SDS011;1284;53.520;10.248;2022-11-21T00:06:16;12.18;;;5.50;;
2548;SDS011;1284;53.520;10.248;2022-11-21T00:08:42;8.63;;;5.43;;
2548;SDS011;1284;53.520;10.248;2022-11-21T00:11:08;10.23;;;4.65;;
2548;SDS011;1284;53.520;10.248;2022-11-21T00:13:33;8.90;;;5.25;;
2548;SDS011;1284;53.520;10.248;2022-11-21T00:16:03;10.40;;;6.00;;
2548;SDS011;1284;53.520;10.248;2022-11-21T00:18:33;10.63;;;5.05;;
2548;SDS011;1284;53.520;10.248;2022-11-21T00:21:06;8.75;;;4.82;;
2548;SDS011;1284;53.520;10.248;2022-11-21T00:23:36;18.25;;;5.10;;
2548;SDS011;1284;53.520;10.248;2022-11-21T00:26:05;12.18;;;5.85;;
2548;SDS011;1284;53.520;10.248;2022-11-21T00:28:31;15.73;;;5.97;;
2548;SDS011;1284;53.520;10.248;2022-11-21T00:30:57;8.93;;;4.75;;
2548;SDS011;1284;53.520;10.248;2022-11-21T00:33:23;14.27;;;5.38;;
2548;SDS011;1284;53.520;10.248;2022-11-21T00:35:48;13.20;;;5.13;;
2548;SDS011;1284;53.520;10.248;2022-11-21T00:38:14;8.25;;;4.63;;
2548;SDS011;1284;53.520;10.248;2022-11-21T00:40:41;10.65;;;5.55;;
2548;SDS011;1284;53.520;10.248;2022-11-21T00:43:07;18.85;;;5.22;;
2548;SDS011;1284;53.520;10.248;2022-11-21T00:45:33;10.70;;;4.30;;
2548;SDS011;1284;53.520;10.248;2022-11-21T00:48:02;11.18;;;5.05;;
2548;SDS011;1284;53.520;10.248;2022-11-21T00:50:27;7.75;;;4.57;;
2548;SDS011;1284;53.520;10.248;2022-11-21T00:52:54;10.40;;;5.25;;
2548;SDS011;1284;53.520;10.248;2022-11-21T00:55:20;12.00;;;5.28;;
2548;SDS011;1284;53.520;10.248;2022-11-21T00:57:46;12.30;;;5.50;;
2548;SDS011;1284;53.520;10.248;2022-11-21T01:00:11;9.52;;;4.65;;
2548;SDS011;1284;53.520;10.248;2022-11-21T01:02:37;7.88;;;4.05;;
2548;SDS011;1284;53.520;10.248;2022-11-21T01:05:03;12.05;;;5.63;;
2548;SDS011;1284;53.520;10.248;2022-11-21T01:07:28;9.82;;;3.78;;
2548;SDS011;1284;53.520;10.248;2022-11-21T01:09:54;8.60;;;5.53;;
2548;SDS011;1284;53.520;10.248;2022-11-21T01:12:19;16.95;;;6.57;;
2548;SDS011;1284;53.520;10.248;2022-11-21T01:14:45;17.08;;;5.68;;
2548;SDS011;1284;53.520;10.248;2022-11-21T01:17:10;11.50;;;6.22;;
2548;SDS011;1284;53.520;10.248;2022-11-21T01:19:36;11.85;;;5.03;;
2548;SDS011;1284;53.520;10.248;2022-11-21T01:22:01;9.30;;;4.63;;
2548;SDS011;1284;53.520;10.248;2022-11-21T01:24:27;10.23;;;5.00;;
2548;SDS011;1284;53.520;10.248;2022-11-21T01:26:52;14.88;;;6.25;;
2548;SDS011;1284;53.520;10.248;2022-11-21T01:29:18;9.48;;;5.63;;
2548;SDS011;1284;53.520;10.248;2022-11-21T01:31:44;15.68;;;6.32;;
2548;SDS011;1284;53.520;10.248;2022-11-21T01:34:09;13.93;;;5.95;;
2548;SDS011;1284;53.520;10.248;2022-11-21T01:36:35;13.70;;;5.05;;
2548;SDS011;1284;53.520;10.248;2022-11-21T01:39:01;13.35;;;5.47;;
2548;SDS011;1284;53.520;10.248;2022-11-21T01:41:30;12.82;;;6.53;;
2548;SDS011;1284;53.520;10.248;2022-11-21T01:43:58;17.88;;;6.22;;
2548;SDS011;1284;53.520;10.248;2022-11-21T01:46:25;12.65;;;6.03;;
2548;SDS011;1284;53.520;10.248;2022-11-21T01:48:56;13.65;;;5.88;;
2548;SDS011;1284;53.520;10.248;2022-11-21T01:54:03;13.93;;;4.88;;
2548;SDS011;1284;53.520;10.248;2022-11-21T01:56:36;14.38;;;5.90;;
2548;SDS011;1284;53.520;10.248;2022-11-21T01:59:07;9.27;;;4.40;;
2548;SDS011;1284;53.520;10.248;2022-11-21T02:01:35;19.35;;;6.38;;
2548;SDS011;1284;53.520;10.248;2022-11-21T02:04:02;9.13;;;4.85;;
2548;SDS011;1284;53.520;10.248;2022-11-21T02:06:30;11.32;;;5.25;;
2548;SDS011;1284;53.520;10.248;2022-11-21T02:08:57;14.48;;;5.57;;
2548;SDS011;1284;53.520;10.248;2022-11-21T02:14:04;9.68;;;5.28;;
2548;SDS011;1284;53.520;10.248;2022-11-21T02:16:30;10.43;;;5.18;;
2548;SDS011;1284;53.520;10.248;2022-11-21T02:18:58;10.25;;;4.88;;
2548;SDS011;1284;53.520;10.248;2022-11-21T02:21:38;11.20;;;5.30;;
2548;SDS011;1284;53.520;10.248;2022-11-21T02:24:14;9.25;;;4.88;;
2548;SDS011;1284;53.520;10.248;2022-11-21T02:26:45;15.30;;;6.30;;
2548;SDS011;1284;53.520;10.248;2022-11-21T02:29:12;10.50;;;5.05;;
2548;SDS011;1284;53.520;10.248;2022-11-21T02:31:38;10.23;;;4.95;;
2548;SDS011;1284;53.520;10.248;2022-11-21T02:34:03;14.18;;;5.25;;
2548;SDS011;1284;53.520;10.248;2022-11-21T02:36:40;7.88;;;4.30;;
2548;SDS011;1284;53.520;10.248;2022-11-21T02:39:29;10.77;;;4.97;;
2548;SDS011;1284;53.520;10.248;2022-11-21T02:44:36;11.80;;;4.40;;
2548;SDS011;1284;53.520;10.248;2022-11-21T02:47:07;8.02;;;4.57;;
2548;SDS011;1284;53.520;10.248;2022-11-21T02:49:37;7.38;;;3.70;;
2548;SDS011;1284;53.520;10.248;2022-11-21T02:52:06;12.70;;;5.18;;
2548;SDS011;1284;53.520;10.248;2022-11-21T02:54:32;8.13;;;4.57;;
2548;SDS011;1284;53.520;10.248;2022-11-21T02:56:57;6.32;;;4.10;;
2548;SDS011;1284;53.520;10.248;2022-11-21T02:59:23;10.98;;;3.85;;
2548;SDS011;1284;53.520;10.248;2022-11-21T03:01:48;13.45;;;6.35;;
2548;SDS011;1284;53.520;10.248;2022-11-21T03:04:14;10.07;;;5.40;;
2548;SDS011;1284;53.520;10.248;2022-11-21T03:06:39;11.82;;;5.65;;
2548;SDS011;1284;53.520;10.248;2022-11-21T03:09:05;12.18;;;4.55;;
2548;SDS011;1284;53.520;10.248;2022-11-21T03:11:30;13.20;;;3.75;;
2548;SDS011;1284;53.520;10.248;2022-11-21T03:13:55;14.50;;;5.07;;
2548;SDS011;1284;53.520;10.248;2022-11-21T03:16:21;10.55;;;4.07;;
2548;SDS011;1284;53.520;10.248;2022-11-21T03:18:47;10.00;;;4.90;;
2548;SDS011;1284;53.520;10.248;2022-11-21T03:21:12;9.93;;;3.90;;
2548;SDS011;1284;53.520;10.248;2022-11-21T03:23:37;14.75;;;5.05;;
2548;SDS011;1284;53.520;10.248;2022-11-21T03:26:03;9.73;;;4.90;;
2548;SDS011;1284;53.520;10.248;2022-11-21T03:28:28;10.82;;;6.05;;
2548;SDS011;1284;53.520;10.248;2022-11-21T03:30:54;8.02;;;4.13;;
2548;SDS011;1284;53.520;10.248;2022-11-21T03:33:19;9.57;;;4.32;;
2548;SDS011;1284;53.520;10.248;2022-11-21T03:35:46;16.20;;;6.53;;
2548;SDS011;1284;53.520;10.248;2022-11-21T03:38:11;14.07;;;5.43;;
2548;SDS011;1284;53.520;10.248;2022-11-21T03:40:37;21.73;;;6.75;;
2548;SDS011;1284;53.520;10.248;2022-11-21T03:43:05;8.57;;;4.85;;
2548;SDS011;1284;53.520;10.248;2022-11-21T03:45:31;10.05;;;4.80;;
2548;SDS011;1284;53.520;10.248;2022-11-21T03:47:57;10.23;;;5.50;;
2548;SDS011;1284;53.520;10.248;2022-11-21T03:50:22;9.63;;;4.70;;
2548;SDS011;1284;53.520;10.248;2022-11-21T03:52:48;22.27;;;5.90;;
2548;SDS011;1284;53.520;10.248;2022-11-21T03:55:13;8.10;;;4.10;;
2548;SDS011;1284;53.520;10.248;2022-11-21T03:57:39;9.07;;;4.82;;
2548;SDS011;1284;53.520;10.248;2022-11-21T04:00:05;9.93;;;4.90;;
2548;SDS011;1284;53.520;10.248;2022-11-21T04:02:31;11.75;;;5.47;;
2548;SDS011;1284;53.520;10.248;2022-11-21T04:04:56;8.60;;;4.97;;
2548;SDS011;1284;53.520;10.248;2022-11-21T04:07:22;11.23;;;5.18;;
2548;SDS011;1284;53.520;10.248;2022-11-21T04:09:47;8.20;;;5.25;;
2548;SDS011;1284;53.520;10.248;2022-11-21T04:12:12;12.88;;;4.40;;
2548;SDS011;1284;53.520;10.248;2022-11-21T04:14:38;11.38;;;4.68;;
2548;SDS011;1284;53.520;10.248;2022-11-21T04:17:03;11.80;;;4.80;;
2548;SDS011;1284;53.520;10.248;2022-11-21T04:19:29;10.55;;;5.07;;
2548;SDS011;1284;53.520;10.248;2022-11-21T04:21:54;13.48;;;6.13;;
2548;SDS011;1284;53.520;10.248;2022-11-21T04:24:19;11.23;;;5.63;;
2548;SDS011;1284;53.520;10.248;2022-11-21T04:26:45;18.88;;;6.88;;
2548;SDS011;1284;53.520;10.248;2022-11-21T04:29:10;9.10;;;4.50;;
2548;SDS011;1284;53.520;10.248;2022-11-21T04:31:36;12.07;;;5.82;;
2548;SDS011;1284;53.520;10.248;2022-11-21T04:34:02;10.27;;;5.03;;
2548;SDS011;1284;53.520;10.248;2022-11-21T04:36:28;11.40;;;5.50;;
2548;SDS011;1284;53.520;10.248;2022-11-21T04:38:53;14.05;;;6.63;;
2548;SDS011;1284;53.520;10.248;2022-11-21T04:41:19;13.95;;;5.38;;
2548;SDS011;1284;53.520;10.248;2022-11-21T04:43:44;11.27;;;5.28;;
2548;SDS011;1284;53.520;10.248;2022-11-21T04:46:10;10.48;;;5.15;;
2548;SDS011;1284;53.520;10.248;2022-11-21T04:48:35;17.08;;;6.82;;
2548;SDS011;1284;53.520;10.248;2022-11-21T04:51:01;14.38;;;4.78;;
2548;SDS011;1284;53.520;10.248;2022-11-21T04:53:26;11.98;;;4.57;;
2548;SDS011;1284;53.520;10.248;2022-11-21T04:55:52;10.13;;;4.95;;
2548;SDS011;1284;53.520;10.248;2022-11-21T04:58:17;8.40;;;3.85;;
2548;SDS011;1284;53.520;10.248;2022-11-21T05:01:07;9.70;;;5.13;;
2548;SDS011;1284;53.520;10.248;2022-11-21T05:03:33;9.85;;;4.30;;
2548;SDS011;1284;53.520;10.248;2022-11-21T05:05:59;7.38;;;3.85;;
2548;SDS011;1284;53.520;10.248;2022-11-21T05:08:24;9.45;;;3.53;;
2548;SDS011;1284;53.520;10.248;2022-11-21T05:10:49;11.27;;;4.47;;
2548;SDS011;1284;53.520;10.248;2022-11-21T05:13:33;7.72;;;4.03;;
2548;SDS011;1284;53.520;10.248;2022-11-21T05:15:59;8.85;;;4.45;;
2548;SDS011;1284;53.520;10.248;2022-11-21T05:18:24;7.53;;;3.92;;
2548;SDS011;1284;53.520;10.248;2022-11-21T05:20:50;9.00;;;5.55;;
2548;SDS011;1284;53.520;10.248;2022-11-21T05:23:15;8.90;;;3.63;;
2548;SDS011;1284;53.520;10.248;2022-11-21T05:25:41;6.57;;;3.72;;
2548;SDS011;1284;53.520;10.248;2022-11-21T05:28:06;10.70;;;4.85;;
2548;SDS011;1284;53.520;10.248;2022-11-21T05:30:31;8.50;;;4.75;;
2548;SDS011;1284;53.520;10.248;2022-11-21T05:33:17;5.80;;;3.92;;
2548;SDS011;1284;53.520;10.248;2022-11-21T05:35:43;13.93;;;4.72;;
2548;SDS011;1284;53.520;10.248;2022-11-21T05:38:08;6.80;;;3.80;;
2548;SDS011;1284;53.520;10.248;2022-11-21T05:40:34;22.55;;;6.53;;
2548;SDS011;1284;53.520;10.248;2022-11-21T05:42:59;6.43;;;3.33;;
2548;SDS011;1284;53.520;10.248;2022-11-21T05:45:43;13.13;;;4.25;;
2548;SDS011;1284;53.520;10.248;2022-11-21T05:48:29;16.15;;;4.63;;
2548;SDS011;1284;53.520;10.248;2022-11-21T05:50:54;10.57;;;4.88;;
2548;SDS011;1284;53.520;10.248;2022-11-21T05:53:20;13.82;;;4.82;;
2548;SDS011;1284;53.520;10.248;2022-11-21T05:55:45;7.70;;;3.58;;
2548;SDS011;1284;53.520;10.248;2022-11-21T05:58:11;8.85;;;3.75;;
2548;SDS011;1284;53.520;10.248;2022-11-21T06:00:37;10.95;;;4.88;;
2548;SDS011;1284;53.520;10.248;2022-11-21T06:03:03;7.35;;;4.47;;
2548;SDS011;1284;53.520;10.248;2022-11-21T06:05:48;10.77;;;4.18;;
2548;SDS011;1284;53.520;10.248;2022-11-21T06:08:14;9.52;;;3.83;;
2548;SDS011;1284;53.520;10.248;2022-11-21T06:10:39;10.75;;;4.72;;
2548;SDS011;1284;53.520;10.248;2022-11-21T06:13:05;7.60;;;4.28;;
2548;SDS011;1284;53.520;10.248;2022-11-21T06:15:49;16.83;;;5.20;;
2548;SDS011;1284;53.520;10.248;2022-11-21T06:18:16;10.83;;;5.63;;
2548;SDS011;1284;53.520;10.248;2022-11-21T06:20:41;17.05;;;6.85;;
2548;SDS011;1284;53.520;10.248;2022-11-21T06:23:07;8.02;;;4.22;;
2548;SDS011;1284;53.520;10.248;2022-11-21T06:25:32;12.65;;;5.30;;
2548;SDS011;1284;53.520;10.248;2022-11-21T06:27:58;11.70;;;4.90;;
2548;SDS011;1284;53.520;10.248;2022-11-21T06:30:24;13.18;;;6.13;;
2548;SDS011;1284;53.520;10.248;2022-11-21T06:32:49;9.98;;;4.85;;
2548;SDS011;1284;53.520;10.248;2022-11-21T06:35:15;19.00;;;7.20;;
2548;SDS011;1284;53.520;10.248;2022-11-21T06:37:40;12.18;;;4.95;;
2548;SDS011;1284;53.520;10.248;2022-11-21T06:40:06;11.55;;;5.63;;
2548;SDS011;1284;53.520;10.248;2022-11-21T06:42:32;9.77;;;5.10;;
2548;SDS011;1284;53.520;10.248;2022-11-21T06:44:58;14.93;;;5.72;;
2548;SDS011;1284;53.520;10.248;2022-11-21T06:47:23;13.85;;;6.05;;
2548;SDS011;1284;53.520;10.248;2022-11-21T06:49:48;12.25;;;5.28;;
2548;SDS011;1284;53.520;10.248;2022-11-21T06:52:14;8.98;;;4.57;;
2548;SDS011;1284;53.520;10.248;2022-11-21T06:54:39;11.65;;;5.82;;
2548;SDS011;1284;53.520;10.248;2022-11-21T06:57:05;10.30;;;4.30;;
2548;SDS011;1284;53.520;10.248;2022-11-21T06:59:30;15.27;;;6.28;;
2548;SDS011;1284;53.520;10.248;2022-11-21T07:01:56;7.32;;;4.75;;
2548;SDS011;1284;53.520;10.248;2022-11-21T07:04:21;18.30;;;5.22;;
2548;SDS011;1284;53.520;10.248;2022-11-21T07:06:50;6.45;;;4.32;;
2548;SDS011;1284;53.520;10.248;2022-11-21T07:09:15;12.43;;;5.45;;
2548;SDS011;1284;53.520;10.248;2022-11-21T07:11:41;14.15;;;5.80;;
2548;SDS011;1284;53.520;10.248;2022-11-21T07:14:06;8.98;;;4.28;;
2548;SDS011;1284;53.520;10.248;2022-11-21T07:16:32;6.97;;;4.30;;
2548;SDS011;1284;53.520;10.248;2022-11-21T07:18:58;7.93;;;4.60;;
2548;SDS011;1284;53.520;10.248;2022-11-21T07:21:25;8.45;;;4.05;;
2548;SDS011;1284;53.520;10.248;2022-11-21T07:23:51;6.05;;;3.25;;
2548;SDS011;1284;53.520;10.248;2022-11-21T07:26:16;6.88;;;4.15;;
2548;SDS011;1284;53.520;10.248;2022-11-21T07:28:42;8.15;;;4.40;;
2548;SDS011;1284;53.520;10.248;2022-11-21T07:31:08;15.55;;;5.32;;
2548;SDS011;1284;53.520;10.248;2022-11-21T07:33:34;10.60;;;4.32;;
2548;SDS011;1284;53.520;10.248;2022-11-21T07:36:01;13.27;;;5.55;;
2548;SDS011;1284;53.520;10.248;2022-11-21T07:38:30;10.73;;;5.43;;
2548;SDS011;1284;53.520;10.248;2022-11-21T07:40:55;8.13;;;4.05;;
2548;SDS011;1284;53.520;10.248;2022-11-21T07:43:21;10.05;;;3.70;;
2548;SDS011;1284;53.520;10.248;2022-11-21T07:45:46;11.70;;;4.43;;
2548;SDS011;1284;53.520;10.248;2022-11-21T07:48:12;7.55;;;4.00;;
2548;SDS011;1284;53.520;10.248;2022-11-21T07:50:38;6.97;;;4.82;;
2548;SDS011;1284;53.520;10.248;2022-11-21T07:53:04;7.13;;;3.97;;
2548;SDS011;1284;53.520;10.248;2022-11-21T07:55:32;7.28;;;4.55;;
2548;SDS011;1284;53.520;10.248;2022-11-21T07:58:18;7.80;;;3.58;;
2548;SDS011;1284;53.520;10.248;2022-11-21T08:00:43;9.85;;;3.80;;
2548;SDS011;1284;53.520;10.248;2022-11-21T08:03:09;9.57;;;5.25;;
2548;SDS011;1284;53.520;10.248;2022-11-21T08:08:29;16.88;;;5.60;;
2548;SDS011;1284;53.520;10.248;2022-11-21T08:10:55;7.25;;;4.63;;
2548;SDS011;1284;53.520;10.248;2022-11-21T08:13:21;15.68;;;5.85;;
2548;SDS011;1284;53.520;10.248;2022-11-21T08:15:46;11.05;;;4.15;;
2548;SDS011;1284;53.520;10.248;2022-11-21T08:18:14;14.05;;;5.00;;
2548;SDS011;1284;53.520;10.248;2022-11-21T08:20:43;11.85;;;5.00;;
2548;SDS011;1284;53.520;10.248;2022-11-21T08:23:08;9.13;;;3.97;;
2548;SDS011;1284;53.520;10.248;2022-11-21T08:25:37;7.93;;;4.82;;
2548;SDS011;1284;53.520;10.248;2022-11-21T08:28:04;9.55;;;4.80;;
2548;SDS011;1284;53.520;10.248;2022-11-21T08:30:31;12.48;;;5.50;;
2548;SDS011;1284;53.520;10.248;2022-11-21T08:32:57;8.00;;;3.53;;
2548;SDS011;1284;53.520;10.248;2022-11-21T08:35:26;7.82;;;4.32;;
2548;SDS011;1284;53.520;10.248;2022-11-21T08:37:58;4.10;;;2.80;;
2548;SDS011;1284;53.520;10.248;2022-11-21T08:40:26;15.80;;;6.05;;
2548;SDS011;1284;53.520;10.248;2022-11-21T08:43:26;11.43;;;4.57;;
2548;SDS011;1284;53.520;10.248;2022-11-21T08:45:44;8.23;;;4.80;;
2548;SDS011;1284;53.520;10.248;2022-11-21T08:48:10;12.90;;;4.60;;
2548;SDS011;1284;53.520;10.248;2022-11-21T08:50:36;5.20;;;2.78;;
2548;SDS011;1284;53.520;10.248;2022-11-21T08:53:01;10.40;;;4.97;;
2548;SDS011;1284;53.520;10.248;2022-11-21T08:55:27;16.65;;;4.88;;
2548;SDS011;1284;53.520;10.248;2022-11-21T08:57:54;5.10;;;3.58;;
2548;SDS011;1284;53.520;10.248;2022-11-21T09:00:22;7.80;;;4.63;;
2548;SDS011;1284;53.520;10.248;2022-11-21T09:02:47;8.60;;;3.25;;
2548;SDS011;1284;53.520;10.248;2022-11-21T09:05:13;8.57;;;4.20;;
2548;SDS011;1284;53.520;10.248;2022-11-21T09:07:38;5.65;;;3.45;;
2548;SDS011;1284;53.520;10.248;2022-11-21T09:10:05;11.13;;;4.43;;
2548;SDS011;1284;53.520;10.248;2022-11-21T09:12:31;8.35;;;4.20;;
2548;SDS011;1284;53.520;10.248;2022-11-21T09:14:57;9.13;;;4.00;;
2548;SDS011;1284;53.520;10.248;2022-11-21T09:17:41;6.28;;;3.30;;
2548;SDS011;1284;53.520;10.248;2022-11-21T09:20:25;6.50;;;3.67;;
2548;SDS011;1284;53.520;10.248;2022-11-21T09:22:50;8.88;;;4.03;;
2548;SDS011;1284;53.520;10.248;2022-11-21T09:25:16;6.32;;;4.38;;
2548;SDS011;1284;53.520;10.248;2022-11-21T09:27:41;6.50;;;2.97;;
2548;SDS011;1284;53.520;10.248;2022-11-21T09:30:07;6.13;;;2.65;;
2548;SDS011;1284;53.520;10.248;2022-11-21T09:32:33;7.75;;;4.35;;
2548;SDS011;1284;53.520;10.248;2022-11-21T09:34:58;6.20;;;4.28;;
2548;SDS011;1284;53.520;10.248;2022-11-21T09:37:23;5.45;;;3.67;;
2548;SDS011;1284;53.520;10.248;2022-11-21T09:39:49;7.28;;;3.80;;
2548;SDS011;1284;53.520;10.248;2022-11-21T09:47:36;5.93;;;3.28;;
2548;SDS011;1284;53.520;10.248;2022-11-21T09:52:39;9.45;;;4.78;;
2548;SDS011;1284;53.520;10.248;2022-11-21T09:55:53;8.90;;;4.13;;
2548;SDS011;1284;53.520;10.248;2022-11-21T09:58:03;3.78;;;3.42;;
2548;SDS011;1284;53.520;10.248;2022-11-21T10:00:31;5.00;;;3.33;;
2548;SDS011;1284;53.520;10.248;2022-11-21T10:02:57;11.00;;;4.03;;
2548;SDS011;1284;53.520;10.248;2022-11-21T10:08:13;7.43;;;4.85;;
2548;SDS011;1284;53.520;10.248;2022-11-21T10:10:55;9.82;;;3.72;;
2548;SDS011;1284;53.520;10.248;2022-11-21T10:14:15;7.82;;;4.18;;
2548;SDS011;1284;53.520;10.248;2022-11-21T10:19:33;9.85;;;5.25;;
2548;SDS011;1284;53.520;10.248;2022-11-21T10:24:52;10.93;;;4.03;;
2548;SDS011;1284;53.520;10.248;2022-11-21T10:30:02;11.77;;;3.92;;
2548;SDS011;1284;53.520;10.248;2022-11-21T10:32:34;13.05;;;5.28;;
2548;SDS011;1284;53.520;10.248;2022-11-21T10:35:16;9.00;;;4.60;;
2548;SDS011;1284;53.520;10.248;2022-11-21T10:37:54;10.93;;;4.03;;
2548;SDS011;1284;53.520;10.248;2022-11-21T10:40:28;6.72;;;3.70;;
2548;SDS011;1284;53.520;10.248;2022-11-21T10:43:05;9.90;;;4.15;;
2548;SDS011;1284;53.520;10.248;2022-11-21T10:45:52;7.82;;;4.82;;
2548;SDS011;1284;53.520;10.248;2022-11-21T10:48:38;9.68;;;4.53;;
2548;SDS011;1284;53.520;10.248;2022-11-21T10:53:41;14.55;;;4.65;;
2548;SDS011;1284;53.520;10.248;2022-11-21T10:56:25;11.13;;;5.18;;
2548;SDS011;1284;53.520;10.248;2022-11-21T10:58:55;12.75;;;4.53;;
2548;SDS011;1284;53.520;10.248;2022-11-21T11:01:33;9.35;;;3.97;;
2548;SDS011;1284;53.520;10.248;2022-11-21T11:06:37;10.32;;;5.20;;
2548;SDS011;1284;53.520;10.248;2022-11-21T11:09:04;7.43;;;3.28;;
2548;SDS011;1284;53.520;10.248;2022-11-21T11:11:31;10.70;;;5.00;;
2548;SDS011;1284;53.520;10.248;2022-11-21T11:13:59;11.02;;;5.60;;
2548;SDS011;1284;53.520;10.248;2022-11-21T11:16:28;12.13;;;5.22;;
2548;SDS011;1284;53.520;10.248;2022-11-21T11:19:04;11.18;;;4.60;;
2548;SDS011;1284;53.520;10.248;2022-11-21T11:26:34;12.77;;;4.32;;
2548;SDS011;1284;53.520;10.248;2022-11-21T11:31:51;16.30;;;4.63;;
2548;SDS011;1284;53.520;10.248;2022-11-21T11:34:19;9.05;;;4.15;;
2548;SDS011;1284;53.520;10.248;2022-11-21T11:39:26;8.43;;;3.90;;
2548;SDS011;1284;53.520;10.248;2022-11-21T11:44:46;9.18;;;4.00;;
2548;SDS011;1284;53.520;10.248;2022-11-21T11:48:03;9.05;;;4.93;;
2548;SDS011;1284;53.520;10.248;2022-11-21T11:50:36;12.45;;;5.13;;
2548;SDS011;1284;53.520;10.248;2022-11-21T11:55:47;12.68;;;3.50;;
2548;SDS011;1284;53.520;10.248;2022-11-21T12:01:10;8.30;;;4.35;;
2548;SDS011;1284;53.520;10.248;2022-11-21T12:03:53;6.85;;;4.43;;
2548;SDS011;1284;53.520;10.248;2022-11-21T12:06:23;6.80;;;3.47;;
2548;SDS011;1284;53.520;10.248;2022-11-21T12:08:56;9.80;;;4.78;;
2548;SDS011;1284;53.520;10.248;2022-11-21T12:14:32;5.57;;;3.60;;
2548;SDS011;1284;53.520;10.248;2022-11-21T12:17:29;8.27;;;3.70;;
2548;SDS011;1284;53.520;10.248;2022-11-21T12:20:00;9.73;;;3.88;;
2548;SDS011;1284;53.520;10.248;2022-11-21T12:22:32;7.13;;;4.45;;
2548;SDS011;1284;53.520;10.248;2022-11-21T12:24:58;12.25;;;5.13;;
2548;SDS011;1284;53.520;10.248;2022-11-21T12:27:32;8.80;;;4.45;;
2548;SDS011;1284;53.520;10.248;2022-11-21T12:32:56;8.80;;;3.83;;
2548;SDS011;1284;53.520;10.248;2022-11-21T12:43:18;5.05;;;2.15;;
2548;SDS011;1284;53.520;10.248;2022-11-21T12:45:48;5.07;;;2.90;;
2548;SDS011;1284;53.520;10.248;2022-11-21T12:48:38;5.22;;;3.28;;
2548;SDS011;1284;53.520;10.248;2022-11-21T12:57:13;6.35;;;2.83;;
2548;SDS011;1284;53.520;10.248;2022-11-21T13:05:33;5.10;;;3.05;;
2548;SDS011;1284;53.520;10.248;2022-11-21T13:08:06;5.50;;;2.63;;
2548;SDS011;1284;53.520;10.248;2022-11-21T13:10:35;6.35;;;3.08;;
2548;SDS011;1284;53.520;10.248;2022-11-21T13:15:33;6.43;;;3.28;;
2548;SDS011;1284;53.520;10.248;2022-11-21T13:20:57;3.88;;;2.63;;
2548;SDS011;1284;53.520;10.248;2022-11-21T13:29:09;3.80;;;2.13;;
2548;SDS011;1284;53.520;10.248;2022-11-21T13:31:36;7.07;;;3.47;;
2548;SDS011;1284;53.520;10.248;2022-11-21T13:34:03;4.85;;;2.35;;
2548;SDS011;1284;53.520;10.248;2022-11-21T13:46:58;7.40;;;2.85;;
2548;SDS011;1284;53.520;10.248;2022-11-21T13:49:26;4.07;;;2.30;;
2548;SDS011;1284;53.520;10.248;2022-11-21T14:08:19;3.40;;;2.00;;
2548;SDS011;1284;53.520;10.248;2022-11-21T14:10:46;2.05;;;1.38;;
2548;SDS011;1284;53.520;10.248;2022-11-21T14:13:22;6.07;;;2.38;;
2548;SDS011;1284;53.520;10.248;2022-11-21T14:19:01;4.00;;;1.75;;
2548;SDS011;1284;53.520;10.248;2022-11-21T14:21:30;5.03;;;2.53;;
2548;SDS011;1284;53.520;10.248;2022-11-21T14:24:01;3.33;;;2.08;;
2548;SDS011;1284;53.520;10.248;2022-11-21T14:32:04;4.20;;;2.20;;
2548;SDS011;1284;53.520;10.248;2022-11-21T14:34:31;4.78;;;2.25;;
2548;SDS011;1284;53.520;10.248;2022-11-21T14:37:01;4.22;;;1.98;;
2548;SDS011;1284;53.520;10.248;2022-11-21T14:39:48;5.43;;;2.60;;
2548;SDS011;1284;53.520;10.248;2022-11-21T14:42:14;3.72;;;1.90;;
2548;SDS011;1284;53.520;10.248;2022-11-21T14:44:40;4.03;;;1.85;;
2548;SDS011;1284;53.520;10.248;2022-11-21T14:49:32;7.00;;;2.78;;
2548;SDS011;1284;53.520;10.248;2022-11-21T14:54:28;6.05;;;2.38;;
2548;SDS011;1284;53.520;10.248;2022-11-21T14:56:57;6.28;;;2.53;;
2548;SDS011;1284;53.520;10.248;2022-11-21T14:59:25;4.53;;;2.08;;
2548;SDS011;1284;53.520;10.248;2022-11-21T15:01:56;4.93;;;1.95;;
2548;SDS011;1284;53.520;10.248;2022-11-21T15:04:25;4.03;;;2.47;;
2548;SDS011;1284;53.520;10.248;2022-11-21T15:06:53;2.22;;;1.90;;
2548;SDS011;1284;53.520;10.248;2022-11-21T15:09:19;5.35;;;2.17;;
2548;SDS011;1284;53.520;10.248;2022-11-21T15:17:02;5.82;;;3.05;;
2548;SDS011;1284;53.520;10.248;2022-11-21T15:19:32;3.70;;;2.10;;
2548;SDS011;1284;53.520;10.248;2022-11-21T15:21:59;5.07;;;1.85;;
2548;SDS011;1284;53.520;10.248;2022-11-21T15:24:34;6.00;;;1.88;;
2548;SDS011;1284;53.520;10.248;2022-11-21T15:27:48;5.15;;;1.70;;
2548;SDS011;1284;53.520;10.248;2022-11-21T15:32:33;2.60;;;1.45;;
2548;SDS011;1284;53.520;10.248;2022-11-21T15:34:58;3.85;;;2.53;;
2548;SDS011;1284;53.520;10.248;2022-11-21T15:37:24;3.03;;;2.00;;
2548;SDS011;1284;53.520;10.248;2022-11-21T15:39:51;2.38;;;1.88;;
2548;SDS011;1284;53.520;10.248;2022-11-21T15:44:56;2.10;;;1.65;;
2548;SDS011;1284;53.520;10.248;2022-11-21T15:47:22;3.25;;;2.42;;
2548;SDS011;1284;53.520;10.248;2022-11-21T15:49:48;3.67;;;2.47;;
2548;SDS011;1284;53.520;10.248;2022-11-21T15:52:13;4.55;;;2.22;;
2548;SDS011;1284;53.520;10.248;2022-11-21T15:54:39;4.13;;;1.98;;
2548;SDS011;1284;53.520;10.248;2022-11-21T15:57:04;2.92;;;2.03;;
2548;SDS011;1284;53.520;10.248;2022-11-21T15:59:30;3.13;;;1.60;;
2548;SDS011;1284;53.520;10.248;2022-11-21T16:01:55;8.70;;;2.67;;
2548;SDS011;1284;53.520;10.248;2022-11-21T16:04:21;5.20;;;1.95;;
2548;SDS011;1284;53.520;10.248;2022-11-21T16:06:46;4.10;;;2.83;;
2548;SDS011;1284;53.520;10.248;2022-11-21T16:09:11;2.22;;;2.00;;
2548;SDS011;1284;53.520;10.248;2022-11-21T16:11:37;4.30;;;2.03;;
2548;SDS011;1284;53.520;10.248;2022-11-21T16:14:05;4.35;;;2.10;;
2548;SDS011;1284;53.520;10.248;2022-11-21T16:16:40;5.45;;;2.58;;
2548;SDS011;1284;53.520;10.248;2022-11-21T16:19:08;3.53;;;2.58;;
2548;SDS011;1284;53.520;10.248;2022-11-21T16:21:34;7.22;;;3.33;;
2548;SDS011;1284;53.520;10.248;2022-11-21T16:24:01;8.23;;;3.70;;
2548;SDS011;1284;53.520;10.248;2022-11-21T16:26:26;4.43;;;2.55;;
2548;SDS011;1284;53.520;10.248;2022-11-21T16:28:53;7.18;;;3.13;;
2548;SDS011;1284;53.520;10.248;2022-11-21T16:31:26;6.88;;;3.40;;
2548;SDS011;1284;53.520;10.248;2022-11-21T16:33:53;7.85;;;3.00;;
2548;SDS011;1284;53.520;10.248;2022-11-21T16:36:23;4.68;;;2.17;;
2548;SDS011;1284;53.520;10.248;2022-11-21T16:38:55;5.82;;;2.80;;
2548;SDS011;1284;53.520;10.248;2022-11-21T16:41:22;4.78;;;2.55;;
2548;SDS011;1284;53.520;10.248;2022-11-21T16:43:49;4.10;;;2.28;;
2548;SDS011;1284;53.520;10.248;2022-11-21T16:46:16;8.95;;;2.80;;
2548;SDS011;1284;53.520;10.248;2022-11-21T16:48:43;5.63;;;2.05;;
2548;SDS011;1284;53.520;10.248;2022-11-21T16:53:40;4.32;;;2.47;;
2548;SDS011;1284;53.520;10.248;2022-11-21T16:56:06;1.45;;;1.38;;
2548;SDS011;1284;53.520;10.248;2022-11-21T16:58:32;5.38;;;2.80;;
2548;SDS011;1284;53.520;10.248;2022-11-21T17:01:08;10.30;;;2.83;;
2548;SDS011;1284;53.520;10.248;2022-11-21T17:03:35;13.50;;;2.80;;
2548;SDS011;1284;53.520;10.248;2022-11-21T17:06:05;4.65;;;2.10;;
2548;SDS011;1284;53.520;10.248;2022-11-21T17:08:31;7.47;;;2.72;;
2548;SDS011;1284;53.520;10.248;2022-11-21T17:10:57;6.00;;;2.80;;
2548;SDS011;1284;53.520;10.248;2022-11-21T17:13:22;9.00;;;2.92;;
2548;SDS011;1284;53.520;10.248;2022-11-21T17:15:50;5.22;;;3.30;;
2548;SDS011;1284;53.520;10.248;2022-11-21T17:18:15;5.13;;;2.60;;
2548;SDS011;1284;53.520;10.248;2022-11-21T17:20:41;4.65;;;2.42;;
2548;SDS011;1284;53.520;10.248;2022-11-21T17:23:06;10.45;;;4.22;;
2548;SDS011;1284;53.520;10.248;2022-11-21T17:25:32;15.75;;;3.72;;
2548;SDS011;1284;53.520;10.248;2022-11-21T17:27:57;5.93;;;3.65;;
2548;SDS011;1284;53.520;10.248;2022-11-21T17:30:23;9.65;;;4.07;;